Time;durP1;ratioP1;P1;durP2;ratioP2;P2;SDS_P1;SDS_P2;PMS_P1;PMS_P2;Temp;Humidity;BMP_temperature;BMP_pressure;BME280_temperature;BME280_humidity;BME280_pressure;Samples;Min_cycle;Max_cycle;Signal;HPM_P1;HPM_P2
2022/10/25 00:01:17;;;;;;;33.20;19.70;;;18.70;83.40;;;;;;5030940;28;20104;-17
2022/10/25 00:03:43;;;;;;;32.03;19.85;;;18.70;83.40;;;;;;5030903;28;20034;-18
2022/10/25 00:06:11;;;;;;;32.67;18.88;;;18.70;83.50;;;;;;5031626;28;20092;-17
2022/10/25 00:08:37;;;;;;;29.58;18.88;;;18.70;83.40;;;;;;5030914;28;20424;-16
2022/10/25 00:11:05;;;;;;;32.58;18.85;;;18.70;83.40;;;;;;5030723;28;20567;-16
2022/10/25 00:13:32;;;;;;;29.30;18.63;;;18.70;83.30;;;;;;5031071;28;20044;-16
2022/10/25 00:15:58;;;;;;;25.67;18.08;;;18.70;83.20;;;;;;5030865;28;20034;-17
2022/10/25 00:18:24;;;;;;;33.40;19.80;;;18.70;83.20;;;;;;5035886;28;20053;-16
2022/10/25 00:20:50;;;;;;;29.13;19.35;;;18.70;83.20;;;;;;5072466;28;20506;-17
2022/10/25 00:23:16;;;;;;;36.92;22.02;;;18.70;83.20;;;;;;5072697;28;20028;-16
2022/10/25 00:25:43;;;;;;;34.95;22.17;;;18.70;83.10;;;;;;5073101;28;20040;-16
2022/10/25 00:28:09;;;;;;;32.20;20.77;;;18.70;83.20;;;;;;5072734;28;20109;-18
2022/10/25 00:30:36;;;;;;;26.20;18.45;;;18.60;83.40;;;;;;5072924;28;20017;-17
2022/10/25 00:33:02;;;;;;;32.90;20.85;;;18.60;83.40;;;;;;5071198;28;20025;-16
2022/10/25 00:35:28;;;;;;;33.10;20.55;;;18.60;83.40;;;;;;5072694;28;20102;-16
2022/10/25 00:37:54;;;;;;;35.97;21.08;;;18.60;83.40;;;;;;5071439;28;20052;-17
2022/10/25 00:40:20;;;;;;;33.13;20.45;;;18.60;83.50;;;;;;5073082;28;20063;-15
2022/10/25 00:42:46;;;;;;;32.42;19.80;;;18.50;83.50;;;;;;5072627;28;20035;-16
2022/10/25 00:45:24;;;;;;;37.22;22.15;;;18.50;83.50;;;;;;5075980;28;20055;-16
2022/10/25 00:48:02;;;;;;;33.72;20.80;;;18.50;83.80;;;;;;5076341;28;20474;-16
2022/10/25 00:50:34;;;;;;;34.95;20.70;;;18.50;83.80;;;;;;5076703;28;20047;-16
2022/10/25 00:53:11;;;;;;;31.05;19.75;;;18.50;83.80;;;;;;5076089;28;20116;-16
2022/10/25 00:55:44;;;;;;;45.55;26.33;;;18.50;83.70;;;;;;5076330;28;20112;-16
2022/10/25 00:58:18;;;;;;;31.33;19.85;;;18.40;83.70;;;;;;5076391;28;20476;-16
2022/10/25 01:00:44;;;;;;;41.40;23.77;;;18.40;83.60;;;;;;5076166;28;20047;-16
2022/10/25 01:03:13;;;;;;;34.45;19.77;;;18.40;83.80;;;;;;5076109;28;20094;-16
2022/10/25 01:05:40;;;;;;;31.38;20.73;;;18.40;83.70;;;;;;5076451;28;20488;-18
2022/10/25 01:08:06;;;;;;;32.78;20.35;;;18.40;83.80;;;;;;5076836;28;20119;-16
2022/10/25 01:10:32;;;;;;;28.17;18.58;;;18.40;84.00;;;;;;5076154;28;20083;-16
2022/10/25 01:13:01;;;;;;;33.22;19.33;;;18.40;83.90;;;;;;5076053;28;20059;-16
2022/10/25 01:15:52;;;;;;;31.40;19.77;;;18.40;83.90;;;;;;5076247;28;20025;-17
2022/10/25 01:18:48;;;;;;;30.70;20.80;;;18.40;83.80;;;;;;5075977;28;20078;-16
2022/10/25 01:21:33;;;;;;;37.53;20.70;;;18.40;83.80;;;;;;5076255;28;20078;-16
2022/10/25 01:24:23;;;;;;;33.30;20.58;;;18.40;83.70;;;;;;5076026;28;20036;-16
2022/10/25 01:26:55;;;;;;;34.65;19.35;;;18.40;83.60;;;;;;5075491;28;20048;-16
2022/10/25 01:29:45;;;;;;;33.10;20.02;;;18.40;83.80;;;;;;5075662;28;20075;-18
2022/10/25 01:32:24;;;;;;;33.28;20.67;;;18.40;83.90;;;;;;5075523;28;20028;-16
2022/10/25 01:35:04;;;;;;;39.08;21.27;;;18.30;83.90;;;;;;5075361;28;20028;-16
2022/10/25 01:37:39;;;;;;;30.88;19.48;;;18.30;83.90;;;;;;5076154;28;20086;-16
2022/10/25 01:40:30;;;;;;;34.78;21.75;;;18.30;83.90;;;;;;5075407;28;20063;-16
2022/10/25 01:43:24;;;;;;;29.48;19.55;;;18.30;84.00;;;;;;5075376;28;20025;-16
2022/10/25 01:46:08;;;;;;;29.67;18.63;;;18.30;83.90;;;;;;5075684;28;20041;-15
2022/10/25 01:48:42;;;;;;;33.42;19.23;;;18.30;83.80;;;;;;5075260;28;20059;-16
2022/10/25 01:51:11;;;;;;;28.67;18.45;;;18.30;83.70;;;;;;5075088;28;20060;-18
2022/10/25 01:53:51;;;;;;;34.90;22.00;;;18.30;83.70;;;;;;5075648;28;20107;-16
2022/10/25 01:56:43;;;;;;;26.65;17.90;;;18.30;83.60;;;;;;5075585;28;20025;-16
2022/10/25 01:59:21;;;;;;;27.58;16.77;;;18.30;83.60;;;;;;5075002;28;20029;-16
2022/10/25 02:02:09;;;;;;;29.80;18.65;;;18.30;83.60;;;;;;5075240;28;20036;-16
2022/10/25 02:04:54;;;;;;;25.98;18.33;;;18.30;83.50;;;;;;5075344;28;20025;-16
2022/10/25 02:07:40;;;;;;;28.15;17.95;;;18.30;83.50;;;;;;5075270;28;20484;-17
2022/10/25 02:10:17;;;;;;;35.28;21.08;;;18.30;83.50;;;;;;5075525;28;20468;-16
2022/10/25 02:13:03;;;;;;;27.20;17.52;;;18.20;83.60;;;;;;5075129;28;20096;-17
2022/10/25 02:15:39;;;;;;;34.75;19.67;;;18.20;83.60;;;;;;5075106;28;20051;-17
2022/10/25 02:18:18;;;;;;;33.88;19.67;;;18.10;83.70;;;;;;5075102;28;20429;-16
2022/10/25 02:20:46;;;;;;;25.63;15.73;;;18.00;83.90;;;;;;5074915;28;20067;-16
2022/10/25 02:23:14;;;;;;;26.55;15.30;;;17.90;83.80;;;;;;5074868;28;20087;-16
2022/10/25 02:25:42;;;;;;;27.40;15.02;;;17.90;83.70;;;;;;5074879;28;20054;-16
2022/10/25 02:28:11;;;;;;;20.73;13.05;;;17.80;83.30;;;;;;5075142;28;20074;-17
2022/10/25 02:30:41;;;;;;;21.45;11.48;;;17.70;83.30;;;;;;5074772;28;20024;-17
2022/10/25 02:33:07;;;;;;;18.02;10.38;;;17.70;83.40;;;;;;5074075;28;20031;-17
2022/10/25 02:35:33;;;;;;;17.60;10.45;;;17.60;83.40;;;;;;5074364;28;20128;-17
2022/10/25 02:37:59;;;;;;;17.60;9.77;;;17.70;83.40;;;;;;5074318;28;20068;-16
2022/10/25 02:40:25;;;;;;;16.38;10.90;;;17.70;83.30;;;;;;5074418;28;20395;-16
2022/10/25 02:42:51;;;;;;;16.30;9.75;;;17.70;83.30;;;;;;5074347;28;20028;-16
2022/10/25 02:45:17;;;;;;;20.42;10.07;;;17.70;83.20;;;;;;5072749;28;20446;-15
2022/10/25 02:47:43;;;;;;;15.57;8.90;;;17.70;83.00;;;;;;5074437;28;20030;-16
2022/10/25 02:50:09;;;;;;;21.80;10.93;;;17.70;82.80;;;;;;5074324;28;20044;-16
2022/10/25 02:52:35;;;;;;;20.50;11.70;;;17.80;82.70;;;;;;5074111;28;20025;-16
2022/10/25 02:55:01;;;;;;;22.80;12.27;;;17.90;82.50;;;;;;5072570;28;20432;-16
2022/10/25 02:57:35;;;;;;;20.15;12.40;;;17.90;82.40;;;;;;5074387;28;20511;-16
2022/10/25 03:00:03;;;;;;;20.58;11.70;;;17.90;82.30;;;;;;5072714;28;20036;-16
2022/10/25 03:02:29;;;;;;;17.58;9.20;;;17.90;82.20;;;;;;5072665;28;20467;-16
2022/10/25 03:04:55;;;;;;;20.50;8.70;;;17.90;82.10;;;;;;5073597;28;20056;-16
2022/10/25 03:07:21;;;;;;;11.93;7.10;;;17.90;81.70;;;;;;5073931;28;20028;-17
2022/10/25 03:09:46;;;;;;;12.93;6.38;;;17.90;81.60;;;;;;5074124;28;20027;-16
2022/10/25 03:12:12;;;;;;;11.23;6.30;;;17.90;81.40;;;;;;5073976;28;20013;-16
2022/10/25 03:14:38;;;;;;;9.82;5.55;;;17.80;81.40;;;;;;5073615;28;20024;-16
2022/10/25 03:17:05;;;;;;;11.27;5.40;;;17.80;81.40;;;;;;5073439;28;20024;-16
2022/10/25 03:19:31;;;;;;;8.80;4.78;;;17.70;81.10;;;;;;5073489;28;20503;-16
2022/10/25 03:21:57;;;;;;;10.23;5.43;;;17.70;81.30;;;;;;5073665;28;20021;-17
2022/10/25 03:24:23;;;;;;;9.05;5.30;;;17.70;81.40;;;;;;5073439;28;20032;-16
2022/10/25 03:26:49;;;;;;;12.05;5.75;;;17.60;81.60;;;;;;5073522;28;20024;-17
2022/10/25 03:29:15;;;;;;;10.70;5.30;;;17.60;81.90;;;;;;5073450;28;20031;-17
2022/10/25 03:31:41;;;;;;;9.30;4.80;;;17.50;81.90;;;;;;5073578;28;20070;-16
2022/10/25 03:34:07;;;;;;;10.43;5.28;;;17.50;82.20;;;;;;5073395;28;20471;-16
2022/10/25 03:36:33;;;;;;;9.40;4.60;;;17.50;81.90;;;;;;5073579;28;20111;-17
2022/10/25 03:38:59;;;;;;;24.33;5.63;;;17.50;81.90;;;;;;5073337;28;20488;-18
2022/10/25 03:41:25;;;;;;;9.48;4.25;;;17.50;82.60;;;;;;5073242;28;20365;-16
2022/10/25 03:43:51;;;;;;;11.32;4.10;;;17.40;84.40;;;;;;5072967;28;20401;-17
2022/10/25 03:46:17;;;;;;;14.02;4.50;;;17.30;84.90;;;;;;5073822;28;20142;-17
2022/10/25 03:48:43;;;;;;;10.70;4.50;;;17.10;85.50;;;;;;5074100;28;20103;-17
2022/10/25 03:51:09;;;;;;;10.00;4.35;;;16.90;86.20;;;;;;5072845;28;20506;-17
2022/10/25 03:53:35;;;;;;;9.00;3.90;;;16.80;86.80;;;;;;5073078;28;20028;-18
2022/10/25 03:56:00;;;;;;;11.07;4.13;;;16.60;87.30;;;;;;5073066;28;20020;-16
2022/10/25 03:58:26;;;;;;;7.00;4.32;;;16.60;87.60;;;;;;5073357;28;20028;-16
2022/10/25 04:00:52;;;;;;;7.82;3.70;;;16.50;88.00;;;;;;5073116;28;20484;-15
2022/10/25 04:03:18;;;;;;;7.07;3.38;;;16.40;88.10;;;;;;5072913;28;20033;-15
2022/10/25 04:05:44;;;;;;;10.65;3.78;;;16.40;87.80;;;;;;5073004;28;20028;-17
2022/10/25 04:08:10;;;;;;;8.50;4.07;;;16.40;88.00;;;;;;5073267;28;20056;-15
2022/10/25 04:10:35;;;;;;;9.13;3.72;;;16.30;88.10;;;;;;5073177;28;20052;-15
2022/10/25 04:13:01;;;;;;;6.65;3.15;;;16.30;88.20;;;;;;5072636;28;20502;-15
2022/10/25 04:15:27;;;;;;;5.30;3.40;;;16.30;88.30;;;;;;5073358;28;20055;-15
2022/10/25 04:17:53;;;;;;;9.50;3.85;;;16.30;88.10;;;;;;5073087;28;20055;-17
2022/10/25 04:20:20;;;;;;;9.68;3.83;;;16.30;88.30;;;;;;5076894;28;20032;-16
2022/10/25 04:22:53;;;;;;;9.20;3.70;;;16.30;88.30;;;;;;5076921;28;20024;-16
2022/10/25 04:25:19;;;;;;;7.97;3.40;;;16.30;88.40;;;;;;5076918;28;20488;-17
2022/10/25 04:27:44;;;;;;;7.00;3.30;;;16.20;88.30;;;;;;5077027;28;20035;-16
2022/10/25 04:30:11;;;;;;;6.05;2.85;;;16.20;88.20;;;;;;5077056;28;20054;-15
2022/10/25 04:32:37;;;;;;;7.95;3.13;;;16.20;88.10;;;;;;5076950;28;20032;-15
2022/10/25 04:35:03;;;;;;;8.32;3.25;;;16.20;87.90;;;;;;5075415;28;20430;-15
2022/10/25 04:37:29;;;;;;;5.53;2.70;;;16.20;88.10;;;;;;5076572;28;20552;-15
2022/10/25 04:39:54;;;;;;;6.53;2.78;;;16.20;88.10;;;;;;5076587;28;20028;-15
2022/10/25 04:42:20;;;;;;;5.45;2.42;;;16.20;87.90;;;;;;5076663;28;20032;-15
2022/10/25 04:44:46;;;;;;;5.63;2.58;;;16.20;87.70;;;;;;5076031;28;20141;-22
2022/10/25 04:47:12;;;;;;;4.95;2.72;;;16.20;87.50;;;;;;5076639;28;20028;-17
2022/10/25 04:49:38;;;;;;;3.38;2.45;;;16.20;87.40;;;;;;5076392;28;20186;-16
2022/10/25 04:52:04;;;;;;;5.05;2.55;;;16.30;87.40;;;;;;5076613;28;20012;-15
2022/10/25 04:54:29;;;;;;;8.15;3.03;;;16.30;87.40;;;;;;5076199;28;20123;-15
2022/10/25 04:56:55;;;;;;;4.45;2.63;;;16.20;87.20;;;;;;5076123;28;20151;-14
2022/10/25 04:59:21;;;;;;;8.05;3.10;;;16.20;87.50;;;;;;5076086;28;20025;-15
2022/10/25 05:01:47;;;;;;;6.05;2.60;;;16.20;87.80;;;;;;5076060;28;20112;-17
2022/10/25 05:04:12;;;;;;;3.50;2.40;;;16.20;88.20;;;;;;5076014;28;20079;-14
2022/10/25 05:06:38;;;;;;;5.15;2.35;;;16.10;88.20;;;;;;5076336;28;20020;-15
2022/10/25 05:09:10;;;;;;;4.93;2.20;;;16.10;88.10;;;;;;5075873;28;20110;-17
2022/10/25 05:11:36;;;;;;;4.25;2.40;;;16.00;88.20;;;;;;5074785;28;20021;-15
2022/10/25 05:14:02;;;;;;;3.90;2.20;;;16.00;88.20;;;;;;5075903;28;20082;-15
2022/10/25 05:16:28;;;;;;;3.75;2.20;;;15.90;88.30;;;;;;5076205;28;20096;-16
2022/10/25 05:18:54;;;;;;;4.88;2.40;;;15.90;88.30;;;;;;5074354;28;20020;-15
2022/10/25 05:21:25;;;;;;;13.48;6.88;;;15.90;88.40;;;;;;5076035;28;20104;-14
2022/10/25 05:23:51;;;;;;;27.50;13.82;;;15.90;88.30;;;;;;5075820;28;20536;-16
2022/10/25 05:26:19;;;;;;;27.90;13.23;;;15.80;88.30;;;;;;5075870;28;20028;-15
2022/10/25 05:28:47;;;;;;;10.77;5.38;;;15.80;88.20;;;;;;5075522;28;20029;-14
2022/10/25 05:31:31;;;;;;;8.23;2.58;;;15.80;88.10;;;;;;5076022;28;20029;-15
2022/10/25 05:33:59;;;;;;;;;;;15.80;88.00;;;;;;5076147;28;20548;-16
2022/10/25 05:36:28;;;;;;;3.50;1.88;;;15.70;88.20;;;;;;5075997;28;19915;-16
2022/10/25 05:38:55;;;;;;;3.00;1.73;;;15.70;88.20;;;;;;5075263;28;20063;-15
2022/10/25 05:41:21;;;;;;;4.53;2.30;;;15.70;88.20;;;;;;5075682;28;20060;-15
2022/10/25 05:43:47;;;;;;;4.07;2.10;;;15.70;88.20;;;;;;5075169;28;20526;-15
2022/10/25 05:46:16;;;;;;;3.67;2.17;;;15.70;88.10;;;;;;5075652;28;20028;-14
2022/10/25 05:48:42;;;;;;;4.60;2.17;;;15.70;88.20;;;;;;5075526;28;20037;-15
2022/10/25 05:51:13;;;;;;;4.97;2.50;;;15.70;88.20;;;;;;5075048;28;20102;-14
2022/10/25 05:53:55;;;;;;;11.98;6.03;;;15.70;88.20;;;;;;5075552;28;20055;-15
2022/10/25 05:56:23;;;;;;;11.07;5.75;;;15.60;88.10;;;;;;5075239;28;20380;-15
2022/10/25 05:58:49;;;;;;;8.00;4.18;;;15.70;88.10;;;;;;5074808;28;20033;-15
2022/10/25 06:01:19;;;;;;;6.78;2.70;;;15.70;88.10;;;;;;5075291;28;20120;-15
2022/10/25 06:03:53;;;;;;;7.57;3.10;;;15.70;88.10;;;;;;5075208;28;20028;-15
2022/10/25 06:06:19;;;;;;;;;;;15.70;88.10;;;;;;5075597;28;20023;-16
2022/10/25 06:08:46;;;;;;;4.43;2.25;;;15.60;88.00;;;;;;5075512;28;19905;-15
2022/10/25 06:11:15;;;;;;;4.72;2.60;;;15.70;88.00;;;;;;5074897;28;20370;-16
2022/10/25 06:13:42;;;;;;;5.05;2.10;;;15.60;88.10;;;;;;5074792;28;20025;-14
2022/10/25 06:16:13;;;;;;;4.85;2.35;;;15.60;88.00;;;;;;5074965;28;20055;-16
2022/10/25 06:18:39;;;;;;;5.40;2.58;;;15.70;88.10;;;;;;5074946;28;20033;-16
2022/10/25 06:21:09;;;;;;;5.47;2.72;;;15.70;88.10;;;;;;5074466;28;20027;-14
2022/10/25 06:23:35;;;;;;;7.82;2.50;;;15.70;88.10;;;;;;5075079;28;20085;-15
2022/10/25 06:26:10;;;;;;;4.70;2.72;;;15.60;88.00;;;;;;5074917;28;20042;-16
2022/10/25 06:28:36;;;;;;;7.90;4.68;;;15.60;87.90;;;;;;5074585;28;20029;-15
2022/10/25 06:31:04;;;;;;;10.27;6.15;;;15.70;87.90;;;;;;5074442;28;20032;-16
2022/10/25 06:33:31;;;;;;;8.68;4.75;;;15.70;87.90;;;;;;5074659;28;20032;-15
2022/10/25 06:35:58;;;;;;;6.53;3.03;;;15.70;87.90;;;;;;5075015;28;20103;-15
2022/10/25 06:38:26;;;;;;;6.05;2.80;;;15.70;87.90;;;;;;5074336;28;20028;-15
2022/10/25 06:41:01;;;;;;;6.38;2.58;;;15.70;87.80;;;;;;5073437;28;20069;-16
2022/10/25 06:43:28;;;;;;;3.80;2.65;;;15.70;87.80;;;;;;5074048;28;20091;-15
2022/10/25 06:45:55;;;;;;;4.55;2.30;;;15.70;87.70;;;;;;5074800;28;20032;-13
2022/10/25 06:48:22;;;;;;;5.55;3.25;;;15.70;87.50;;;;;;5074269;28;20036;-15
2022/10/25 06:50:55;;;;;;;4.15;2.30;;;15.80;87.50;;;;;;5072604;28;20414;-15
2022/10/25 06:53:21;;;;;;;;;;;15.80;87.60;;;;;;5075127;28;20410;-15
2022/10/25 06:55:48;;;;;;;6.70;2.85;;;15.90;87.60;;;;;;5074307;28;20043;-16
2022/10/25 06:58:14;;;;;;;3.58;2.78;;;15.90;87.40;;;;;;5074245;28;20067;-15
2022/10/25 07:00:39;;;;;;;5.13;2.80;;;15.90;87.20;;;;;;5073772;28;20396;-15
2022/10/25 07:03:05;;;;;;;4.60;2.65;;;15.90;87.10;;;;;;5073853;28;20032;-15
2022/10/25 07:05:31;;;;;;;5.00;3.03;;;15.90;87.00;;;;;;5074197;28;20543;-14
2022/10/25 07:07:57;;;;;;;7.00;2.83;;;15.90;87.00;;;;;;5073741;28;20111;-15
2022/10/25 07:10:23;;;;;;;7.43;4.20;;;15.90;86.90;;;;;;5074219;28;20027;-15
2022/10/25 07:12:48;;;;;;;10.40;4.88;;;15.90;87.10;;;;;;5073485;28;20411;-15
2022/10/25 07:15:14;;;;;;;6.53;3.30;;;15.90;87.10;;;;;;5073617;28;20103;-17
2022/10/25 07:17:40;;;;;;;7.07;2.88;;;15.90;87.10;;;;;;5073753;28;20111;-15
2022/10/25 07:20:07;;;;;;;5.22;2.30;;;15.90;87.20;;;;;;5073656;28;20029;-15
2022/10/25 07:22:33;;;;;;;3.65;2.22;;;15.80;87.40;;;;;;5073865;28;20020;-16
2022/10/25 07:24:59;;;;;;;5.60;1.70;;;15.80;87.20;;;;;;5073413;28;20020;-15
2022/10/25 07:27:24;;;;;;;3.47;1.58;;;15.80;87.40;;;;;;5073446;28;20388;-15
2022/10/25 07:29:50;;;;;;;4.07;1.60;;;15.80;87.40;;;;;;5073618;28;20082;-15
2022/10/25 07:32:16;;;;;;;4.47;1.50;;;15.80;87.30;;;;;;5073582;28;20059;-14
2022/10/25 07:34:42;;;;;;;2.63;1.30;;;15.90;87.30;;;;;;5073474;28;20031;-14
2022/10/25 07:37:08;;;;;;;4.50;1.75;;;15.90;87.30;;;;;;5073060;28;20055;-14
2022/10/25 07:39:33;;;;;;;2.95;1.60;;;15.90;87.30;;;;;;5073289;28;20040;-14
2022/10/25 07:41:59;;;;;;;4.10;2.00;;;15.90;87.30;;;;;;5071960;28;20039;-14
2022/10/25 07:44:25;;;;;;;3.30;1.90;;;15.90;87.30;;;;;;5073027;28;20051;-14
2022/10/25 07:46:52;;;;;;;3.33;1.60;;;15.90;87.20;;;;;;5073073;28;20025;-14
2022/10/25 07:49:18;;;;;;;4.07;1.45;;;16.00;87.20;;;;;;5073368;28;20024;-13
2022/10/25 07:51:44;;;;;;;2.35;1.45;;;16.00;87.10;;;;;;5073449;28;20476;-15
2022/10/25 07:54:10;;;;;;;2.95;1.67;;;16.00;87.10;;;;;;5073017;28;20037;-13
2022/10/25 07:56:36;;;;;;;3.03;1.63;;;16.00;86.90;;;;;;5073090;28;20020;-13
2022/10/25 07:59:02;;;;;;;2.28;1.35;;;16.10;86.70;;;;;;5072880;28;20025;-13
2022/10/25 08:01:28;;;;;;;2.85;1.70;;;16.10;86.70;;;;;;5073034;28;20036;-14
2022/10/25 08:03:54;;;;;;;1.83;1.40;;;16.10;86.70;;;;;;5073235;28;20112;-16
2022/10/25 08:06:22;;;;;;;4.10;1.70;;;16.20;86.70;;;;;;5073144;28;20032;-17
2022/10/25 08:08:49;;;;;;;2.88;1.98;;;16.20;86.70;;;;;;5073405;28;20379;-15
2022/10/25 08:11:15;;;;;;;5.63;2.70;;;16.30;86.50;;;;;;5073298;28;20424;-15
2022/10/25 08:13:41;;;;;;;4.38;2.92;;;16.30;86.40;;;;;;5072939;28;20115;-15
2022/10/25 08:16:07;;;;;;;7.30;4.93;;;16.30;86.30;;;;;;5073534;28;20104;-15
2022/10/25 08:18:34;;;;;;;9.32;5.68;;;16.40;86.10;;;;;;5072934;28;20074;-15
2022/10/25 08:21:01;;;;;;;7.47;4.05;;;16.40;85.90;;;;;;5072647;28;20557;-15
2022/10/25 08:23:28;;;;;;;7.10;3.45;;;16.40;85.80;;;;;;5073085;28;20111;-16
2022/10/25 08:25:53;;;;;;;3.65;2.40;;;16.40;85.90;;;;;;5073156;28;20058;-15
2022/10/25 08:28:20;;;;;;;4.47;2.33;;;16.40;85.80;;;;;;5073370;28;20033;-15
2022/10/25 08:30:45;;;;;;;4.65;2.22;;;16.40;85.90;;;;;;5071558;28;20021;-15
2022/10/25 08:33:11;;;;;;;4.53;2.08;;;16.40;86.10;;;;;;5072969;28;20570;-16
2022/10/25 08:35:37;;;;;;;2.53;1.85;;;16.40;86.00;;;;;;5072704;28;20459;-15
2022/10/25 08:38:04;;;;;;;3.10;1.95;;;16.40;85.70;;;;;;5072705;28;20024;-15
2022/10/25 08:40:51;;;;;;;3.67;1.95;;;16.50;85.80;;;;;;5072859;28;20079;-14
2022/10/25 08:43:42;;;;;;;3.97;1.90;;;16.50;85.80;;;;;;5073016;28;20083;-15
2022/10/25 08:46:15;;;;;;;4.53;2.05;;;16.60;85.70;;;;;;5072691;28;20052;-13
2022/10/25 08:48:48;;;;;;;4.73;2.00;;;16.70;86.00;;;;;;5072823;28;20095;-14
2022/10/25 08:51:36;;;;;;;3.37;2.10;;;17.00;86.30;;;;;;5072942;28;20450;-16
2022/10/25 08:54:17;;;;;;;5.45;2.30;;;17.40;85.10;;;;;;5072853;28;20025;-14
2022/10/25 08:56:44;;;;;;;3.55;1.83;;;17.60;84.50;;;;;;5072567;28;20526;-14
2022/10/25 08:59:20;;;;;;;2.55;1.92;;;17.80;82.80;;;;;;5072310;28;20024;-17
2022/10/25 09:01:55;;;;;;;4.97;2.45;;;18.20;83.10;;;;;;5072733;28;20112;-14
2022/10/25 09:04:22;;;;;;;2.88;2.17;;;18.40;81.90;;;;;;5073034;28;20025;-15
2022/10/25 09:07:11;;;;;;;2.33;1.73;;;18.60;80.40;;;;;;5075886;28;20036;-17
2022/10/25 09:09:52;;;;;;;3.40;1.58;;;18.60;79.80;;;;;;5076340;28;20115;-15
2022/10/25 09:12:40;;;;;;;4.05;1.67;;;18.50;79.60;;;;;;5076422;28;20464;-16
2022/10/25 09:15:22;;;;;;;2.67;1.55;;;18.40;80.00;;;;;;5075729;28;20025;-14
2022/10/25 09:17:52;;;;;;;3.13;1.70;;;18.50;80.10;;;;;;5076252;28;20536;-14
2022/10/25 09:20:30;;;;;;;2.42;1.60;;;18.70;80.40;;;;;;5075863;28;20024;-14
2022/10/25 09:23:02;;;;;;;3.80;1.80;;;19.00;81.10;;;;;;5075874;28;20468;-15
2022/10/25 09:25:38;;;;;;;3.67;1.85;;;19.30;77.10;;;;;;5076085;28;20020;-14
2022/10/25 09:28:17;;;;;;;3.97;1.80;;;19.60;79.10;;;;;;5076382;28;20031;-14
2022/10/25 09:30:44;;;;;;;3.20;1.92;;;19.90;77.60;;;;;;5076338;28;20051;-16
2022/10/25 09:33:18;;;;;;;4.13;1.90;;;20.10;76.90;;;;;;5075329;28;20031;-13
2022/10/25 09:35:52;;;;;;;;;;;20.30;76.40;;;;;;5076348;28;20118;-15
2022/10/25 09:38:20;;;;;;;;;;;20.40;74.60;;;;;;5075924;28;19904;-15
2022/10/25 09:41:02;;;;;;;6.63;2.00;;;20.50;74.00;;;;;;5075415;28;20007;-15
2022/10/25 09:43:45;;;;;;;2.45;1.73;;;20.60;72.70;;;;;;5075243;28;20480;-15
2022/10/25 09:46:17;;;;;;;2.65;1.88;;;20.70;74.10;;;;;;5075416;28;20396;-15
2022/10/25 09:49:03;;;;;;;4.22;1.77;;;20.90;73.70;;;;;;5075321;28;20024;-15
2022/10/25 09:52:04;;;;;;;4.43;1.70;;;21.00;74.20;;;;;;5075341;28;20025;-15
2022/10/25 09:54:46;;;;;;;3.88;1.95;;;21.30;73.70;;;;;;5065988;28;20020;-16
2022/10/25 09:57:12;;;;;;;3.53;1.88;;;21.50;70.80;;;;;;5075184;28;20453;-15
2022/10/25 09:59:38;;;;;;;3.78;2.25;;;21.40;71.10;;;;;;5074471;28;20024;-14
2022/10/25 10:02:04;;;;;;;2.45;1.90;;;21.60;72.30;;;;;;5076123;28;20333;-14
2022/10/25 10:04:36;;;;;;;4.97;2.22;;;21.70;71.10;;;;;;5075317;28;20101;-15
2022/10/25 10:07:27;;;;;;;3.63;1.90;;;21.80;71.00;;;;;;5074774;28;20063;-15
2022/10/25 10:10:01;;;;;;;3.55;2.00;;;22.00;71.50;;;;;;5075308;28;20078;-15
2022/10/25 10:12:42;;;;;;;;;;;22.30;71.30;;;;;;5075369;28;20070;-15
2022/10/25 10:15:49;;;;;;;4.70;2.20;;;22.40;69.20;;;;;;5074805;28;19911;-15
2022/10/25 10:18:21;;;;;;;2.95;2.30;;;22.70;68.50;;;;;;5074953;28;20032;-16
2022/10/25 10:21:08;;;;;;;4.53;2.45;;;22.70;67.00;;;;;;5074543;28;20079;-15
2022/10/25 10:23:44;;;;;;;4.78;2.30;;;22.70;66.40;;;;;;5075020;28;20157;-15
2022/10/25 10:26:18;;;;;;;2.53;1.83;;;22.70;68.20;;;;;;5074883;28;20040;-15
2022/10/25 10:28:47;;;;;;;3.42;2.03;;;22.70;67.20;;;;;;5074901;28;20029;-15
2022/10/25 10:31:13;;;;;;;3.05;2.05;;;22.90;67.90;;;;;;5074785;28;20063;-16
2022/10/25 10:33:45;;;;;;;6.55;2.28;;;23.00;67.80;;;;;;5073113;28;20077;-14
2022/10/25 10:36:25;;;;;;;5.40;2.40;;;23.20;67.00;;;;;;5074733;28;20020;-15
2022/10/25 10:38:51;;;;;;;4.97;1.85;;;23.40;65.80;;;;;;5074240;28;20384;-15
2022/10/25 10:41:23;;;;;;;3.55;2.10;;;23.30;64.50;;;;;;5074733;28;20083;-17
2022/10/25 10:43:50;;;;;;;3.90;2.10;;;23.50;64.50;;;;;;5074211;28;20078;-15
2022/10/25 10:46:23;;;;;;;3.10;1.90;;;23.70;64.50;;;;;;5074265;28;20029;-15
2022/10/25 10:48:54;;;;;;;1.98;1.60;;;23.90;64.10;;;;;;5074202;28;20036;-14
2022/10/25 10:51:41;;;;;;;3.67;2.08;;;24.10;64.10;;;;;;5074434;28;20031;-15
2022/10/25 10:54:27;;;;;;;3.00;2.15;;;24.30;59.90;;;;;;5074411;28;20024;-15
2022/10/25 10:57:04;;;;;;;2.67;2.03;;;24.30;61.40;;;;;;5073818;28;20036;-15
2022/10/25 10:59:44;;;;;;;3.70;2.22;;;24.60;61.30;;;;;;5074356;28;20050;-15
2022/10/25 11:02:29;;;;;;;3.25;2.30;;;24.80;60.20;;;;;;5074322;28;20040;-15
2022/10/25 11:04:55;;;;;;;3.33;2.08;;;25.00;60.00;;;;;;5073669;28;20029;-15
2022/10/25 11:07:33;;;;;;;3.13;1.90;;;25.20;60.70;;;;;;5072509;28;20451;-17
2022/10/25 11:10:18;;;;;;;3.70;2.00;;;25.40;60.50;;;;;;5074081;28;20111;-15
2022/10/25 11:12:44;;;;;;;3.47;1.65;;;25.40;57.00;;;;;;5074008;28;20388;-14
2022/10/25 11:15:14;;;;;;;4.28;1.77;;;25.50;58.90;;;;;;5073507;28;20511;-14
2022/10/25 11:17:52;;;;;;;3.05;1.80;;;25.50;58.40;;;;;;5073515;28;20032;-16
2022/10/25 11:20:21;;;;;;;2.17;1.70;;;25.60;57.90;;;;;;5073579;28;20032;-15
2022/10/25 11:23:07;;;;;;;5.13;2.00;;;25.60;57.60;;;;;;5073325;28;20024;-16
2022/10/25 11:25:36;;;;;;;4.05;1.90;;;25.70;57.20;;;;;;5074344;28;20365;-15
2022/10/25 11:28:13;;;;;;;2.97;1.70;;;25.90;57.50;;;;;;5073391;28;20071;-16
2022/10/25 11:30:53;;;;;;;3.63;2.10;;;26.30;57.00;;;;;;5074004;28;20107;-14
2022/10/25 11:33:42;;;;;;;3.42;2.08;;;26.70;56.00;;;;;;5073645;28;20024;-15
2022/10/25 11:36:14;;;;;;;2.65;2.08;;;26.70;54.10;;;;;;5073588;28;20025;-15
2022/10/25 11:38:57;;;;;;;2.90;1.70;;;26.40;52.50;;;;;;5073338;28;20032;-14
2022/10/25 11:41:32;;;;;;;;;;;26.50;53.70;;;;;;5074126;28;20366;-16
2022/10/25 11:44:26;;;;;;;1.55;1.30;;;26.40;53.00;;;;;;5073321;28;19917;-15
2022/10/25 11:47:19;;;;;;;3.63;1.88;;;26.60;52.10;;;;;;5073111;28;20025;-15
2022/10/25 11:50:09;;;;;;;1.98;1.50;;;26.80;53.20;;;;;;5073150;28;20115;-14
2022/10/25 11:53:15;;;;;;;3.92;2.05;;;26.90;51.90;;;;;;5073449;28;20024;-17
2022/10/25 11:55:45;;;;;;;3.05;1.80;;;27.20;53.20;;;;;;5073687;28;20063;-16
2022/10/25 11:58:34;;;;;;;4.57;1.70;;;27.40;53.50;;;;;;5073701;28;20033;-15
2022/10/25 12:01:18;;;;;;;1.45;1.30;;;27.50;50.30;;;;;;5073179;28;20114;-14
2022/10/25 12:03:55;;;;;;;1.95;1.73;;;27.50;52.30;;;;;;5073315;28;20017;-15
2022/10/25 12:06:28;;;;;;;1.80;1.45;;;27.80;53.00;;;;;;5073002;28;20057;-14
2022/10/25 12:09:05;;;;;;;4.55;1.10;;;28.20;46.80;;;;;;5072836;28;20037;-15
2022/10/25 12:11:37;;;;;;;2.30;1.40;;;28.30;49.40;;;;;;5072961;28;20040;-14
2022/10/25 12:14:09;;;;;;;3.42;1.52;;;28.40;50.10;;;;;;5073050;28;20032;-14
2022/10/25 12:16:37;;;;;;;2.53;1.35;;;28.50;49.60;;;;;;5073219;28;20468;-15
2022/10/25 12:19:15;;;;;;;2.70;1.30;;;28.50;48.70;;;;;;5071468;28;20043;-15
2022/10/25 12:21:50;;;;;;;2.45;1.50;;;28.70;47.40;;;;;;5073095;28;20116;-16
2022/10/25 12:24:41;;;;;;;2.35;1.50;;;28.90;48.10;;;;;;5072927;28;20032;-16
2022/10/25 12:27:09;;;;;;;3.95;1.35;;;29.00;47.90;;;;;;5072923;28;20086;-15
2022/10/25 12:29:43;;;;;;;2.25;1.38;;;28.90;46.50;;;;;;5073067;28;20060;-15
2022/10/25 12:32:34;;;;;;;1.88;1.15;;;28.90;45.60;;;;;;5073147;28;20059;-18
2022/10/25 12:35:05;;;;;;;2.35;1.42;;;28.70;47.00;;;;;;5072227;28;20045;-16
2022/10/25 12:37:48;;;;;;;2.35;1.35;;;28.50;48.30;;;;;;5072788;28;20035;-16
2022/10/25 12:40:17;;;;;;;2.90;1.48;;;28.40;47.80;;;;;;5074853;28;20495;-16
2022/10/25 12:42:53;;;;;;;2.65;1.35;;;28.30;48.70;;;;;;5076922;28;20028;-16
2022/10/25 12:45:45;;;;;;;3.08;1.48;;;28.10;48.60;;;;;;5076371;28;20052;-15
2022/10/25 12:48:38;;;;;;;2.83;1.63;;;28.20;49.40;;;;;;5076778;28;20021;-15
2022/10/25 12:51:28;;;;;;;2.30;1.52;;;28.30;47.40;;;;;;5076109;28;20039;-16
2022/10/25 12:54:12;;;;;;;1.90;1.45;;;28.40;49.20;;;;;;5076793;28;20067;-15
2022/10/25 12:56:58;;;;;;;1.63;1.40;;;28.60;48.50;;;;;;5076363;28;20074;-16
2022/10/25 12:59:30;;;;;;;2.03;1.40;;;29.00;47.20;;;;;;5076334;28;20024;-14
2022/10/25 13:02:18;;;;;;;1.50;1.40;;;29.20;47.30;;;;;;5076150;28;20032;-15
2022/10/25 13:04:52;;;;;;;1.60;1.45;;;29.40;45.80;;;;;;5076197;28;20017;-16
2022/10/25 13:07:21;;;;;;;1.40;1.30;;;29.60;46.40;;;;;;5076049;28;20028;-15